sensor_id;sensor_type;location;lat;lon;timestamp;P1;durP1;ratioP1;P2;durP2;ratioP2
4885;SDS011;2457;51.788;6.136;2022-11-25T00:02:10;7.33;;;2.27;;
4885;SDS011;2457;51.788;6.136;2022-11-25T00:04:37;6.37;;;1.80;;
4885;SDS011;2457;51.788;6.136;2022-11-25T00:07:04;10.40;;;1.90;;
4885;SDS011;2457;51.788;6.136;2022-11-25T00:09:31;10.50;;;2.30;;
4885;SDS011;2457;51.788;6.136;2022-11-25T00:11:59;9.57;;;2.23;;
4885;SDS011;2457;51.788;6.136;2022-11-25T00:14:26;10.40;;;2.30;;
4885;SDS011;2457;51.788;6.136;2022-11-25T00:16:53;9.77;;;2.70;;
4885;SDS011;2457;51.788;6.136;2022-11-25T00:19:20;7.83;;;2.23;;
4885;SDS011;2457;51.788;6.136;2022-11-25T00:21:48;7.03;;;1.77;;
4885;SDS011;2457;51.788;6.136;2022-11-25T00:24:15;7.90;;;2.17;;
4885;SDS011;2457;51.788;6.136;2022-11-25T00:26:43;6.97;;;1.83;;
4885;SDS011;2457;51.788;6.136;2022-11-25T00:29:10;7.47;;;2.07;;
4885;SDS011;2457;51.788;6.136;2022-11-25T00:31:39;6.90;;;2.03;;
4885;SDS011;2457;51.788;6.136;2022-11-25T00:34:10;14.43;;;2.53;;
4885;SDS011;2457;51.788;6.136;2022-11-25T00:36:36;5.63;;;1.50;;
4885;SDS011;2457;51.788;6.136;2022-11-25T00:39:09;9.10;;;2.07;;
4885;SDS011;2457;51.788;6.136;2022-11-25T00:41:35;12.73;;;2.13;;
4885;SDS011;2457;51.788;6.136;2022-11-25T00:44:20;13.70;;;2.20;;
4885;SDS011;2457;51.788;6.136;2022-11-25T00:49:40;10.77;;;2.40;;
4885;SDS011;2457;51.788;6.136;2022-11-25T00:52:07;10.27;;;2.33;;
4885;SDS011;2457;51.788;6.136;2022-11-25T00:54:35;8.30;;;2.80;;
4885;SDS011;2457;51.788;6.136;2022-11-25T00:57:02;10.70;;;2.13;;
4885;SDS011;2457;51.788;6.136;2022-11-25T00:59:29;6.40;;;2.13;;
4885;SDS011;2457;51.788;6.136;2022-11-25T01:01:57;8.73;;;1.87;;
4885;SDS011;2457;51.788;6.136;2022-11-25T01:04:24;9.43;;;2.20;;
4885;SDS011;2457;51.788;6.136;2022-11-25T01:06:51;11.07;;;2.33;;
4885;SDS011;2457;51.788;6.136;2022-11-25T01:09:19;8.17;;;1.93;;
4885;SDS011;2457;51.788;6.136;2022-11-25T01:11:48;8.77;;;2.00;;
4885;SDS011;2457;51.788;6.136;2022-11-25T01:14:16;10.07;;;2.57;;
4885;SDS011;2457;51.788;6.136;2022-11-25T01:16:44;7.87;;;2.00;;
4885;SDS011;2457;51.788;6.136;2022-11-25T01:19:11;9.07;;;2.23;;
4885;SDS011;2457;51.788;6.136;2022-11-25T01:21:39;12.87;;;2.70;;
4885;SDS011;2457;51.788;6.136;2022-11-25T01:24:06;11.90;;;2.10;;
4885;SDS011;2457;51.788;6.136;2022-11-25T01:26:34;7.67;;;2.40;;
4885;SDS011;2457;51.788;6.136;2022-11-25T01:29:04;8.87;;;2.53;;
4885;SDS011;2457;51.788;6.136;2022-11-25T01:31:31;9.20;;;1.90;;
4885;SDS011;2457;51.788;6.136;2022-11-25T01:34:05;7.50;;;2.47;;
4885;SDS011;2457;51.788;6.136;2022-11-25T01:36:28;9.23;;;2.00;;
4885;SDS011;2457;51.788;6.136;2022-11-25T01:38:57;14.67;;;2.00;;
4885;SDS011;2457;51.788;6.136;2022-11-25T01:41:26;7.93;;;2.20;;
4885;SDS011;2457;51.788;6.136;2022-11-25T01:46:44;6.80;;;2.30;;
4885;SDS011;2457;51.788;6.136;2022-11-25T01:49:24;7.73;;;2.03;;
4885;SDS011;2457;51.788;6.136;2022-11-25T01:51:56;8.50;;;2.63;;
4885;SDS011;2457;51.788;6.136;2022-11-25T01:54:19;9.27;;;2.37;;
4885;SDS011;2457;51.788;6.136;2022-11-25T01:56:58;9.70;;;2.33;;
4885;SDS011;2457;51.788;6.136;2022-11-25T01:59:22;11.40;;;2.33;;
4885;SDS011;2457;51.788;6.136;2022-11-25T02:01:49;10.63;;;2.60;;
4885;SDS011;2457;51.788;6.136;2022-11-25T02:04:17;9.43;;;2.57;;
4885;SDS011;2457;51.788;6.136;2022-11-25T02:06:46;8.27;;;2.23;;
4885;SDS011;2457;51.788;6.136;2022-11-25T02:09:13;5.33;;;1.40;;
4885;SDS011;2457;51.788;6.136;2022-11-25T02:11:42;9.57;;;2.10;;
4885;SDS011;2457;51.788;6.136;2022-11-25T02:14:11;12.17;;;2.50;;
4885;SDS011;2457;51.788;6.136;2022-11-25T02:16:38;7.20;;;2.07;;
4885;SDS011;2457;51.788;6.136;2022-11-25T02:19:07;7.40;;;2.40;;
4885;SDS011;2457;51.788;6.136;2022-11-25T02:21:42;8.17;;;2.33;;
4885;SDS011;2457;51.788;6.136;2022-11-25T02:24:12;10.63;;;2.53;;
4885;SDS011;2457;51.788;6.136;2022-11-25T02:26:38;8.90;;;2.30;;
4885;SDS011;2457;51.788;6.136;2022-11-25T02:29:05;7.17;;;2.07;;
4885;SDS011;2457;51.788;6.136;2022-11-25T02:31:32;8.20;;;1.90;;
4885;SDS011;2457;51.788;6.136;2022-11-25T02:34:00;9.80;;;2.20;;
4885;SDS011;2457;51.788;6.136;2022-11-25T02:36:27;10.40;;;1.97;;
4885;SDS011;2457;51.788;6.136;2022-11-25T02:38:58;9.67;;;2.60;;
4885;SDS011;2457;51.788;6.136;2022-11-25T02:41:32;7.40;;;1.70;;
4885;SDS011;2457;51.788;6.136;2022-11-25T02:44:00;11.20;;;2.30;;
4885;SDS011;2457;51.788;6.136;2022-11-25T02:46:27;11.80;;;2.23;;
4885;SDS011;2457;51.788;6.136;2022-11-25T02:48:55;8.97;;;2.00;;
4885;SDS011;2457;51.788;6.136;2022-11-25T02:51:24;7.53;;;2.13;;
4885;SDS011;2457;51.788;6.136;2022-11-25T02:53:52;7.00;;;2.03;;
4885;SDS011;2457;51.788;6.136;2022-11-25T02:56:20;11.80;;;2.40;;
4885;SDS011;2457;51.788;6.136;2022-11-25T02:58:47;9.33;;;2.77;;
4885;SDS011;2457;51.788;6.136;2022-11-25T03:01:15;10.10;;;2.30;;
4885;SDS011;2457;51.788;6.136;2022-11-25T03:03:42;17.03;;;2.57;;
4885;SDS011;2457;51.788;6.136;2022-11-25T03:06:10;8.50;;;2.20;;
4885;SDS011;2457;51.788;6.136;2022-11-25T03:08:37;9.30;;;2.30;;
4885;SDS011;2457;51.788;6.136;2022-11-25T03:11:05;8.33;;;2.23;;
4885;SDS011;2457;51.788;6.136;2022-11-25T03:13:32;10.50;;;2.83;;
4885;SDS011;2457;51.788;6.136;2022-11-25T03:15:59;8.50;;;2.40;;
4885;SDS011;2457;51.788;6.136;2022-11-25T03:18:27;10.57;;;3.00;;
4885;SDS011;2457;51.788;6.136;2022-11-25T03:20:54;11.33;;;2.70;;
4885;SDS011;2457;51.788;6.136;2022-11-25T03:23:22;9.70;;;2.33;;
4885;SDS011;2457;51.788;6.136;2022-11-25T03:25:49;11.73;;;2.50;;
4885;SDS011;2457;51.788;6.136;2022-11-25T03:28:16;7.87;;;2.30;;
4885;SDS011;2457;51.788;6.136;2022-11-25T03:30:44;11.60;;;2.10;;
4885;SDS011;2457;51.788;6.136;2022-11-25T03:33:11;6.97;;;1.80;;
4885;SDS011;2457;51.788;6.136;2022-11-25T03:35:38;8.40;;;2.00;;
4885;SDS011;2457;51.788;6.136;2022-11-25T03:38:06;10.30;;;2.27;;
4885;SDS011;2457;51.788;6.136;2022-11-25T03:40:33;7.43;;;2.60;;
4885;SDS011;2457;51.788;6.136;2022-11-25T03:43:00;10.90;;;2.57;;
4885;SDS011;2457;51.788;6.136;2022-11-25T03:45:27;10.17;;;2.33;;
4885;SDS011;2457;51.788;6.136;2022-11-25T03:47:55;7.33;;;2.10;;
4885;SDS011;2457;51.788;6.136;2022-11-25T03:50:22;6.13;;;2.10;;
4885;SDS011;2457;51.788;6.136;2022-11-25T03:52:49;6.40;;;2.23;;
4885;SDS011;2457;51.788;6.136;2022-11-25T03:55:17;8.77;;;2.40;;
4885;SDS011;2457;51.788;6.136;2022-11-25T03:57:44;9.63;;;2.40;;
4885;SDS011;2457;51.788;6.136;2022-11-25T04:00:13;8.23;;;1.93;;
4885;SDS011;2457;51.788;6.136;2022-11-25T04:02:40;9.00;;;1.97;;
4885;SDS011;2457;51.788;6.136;2022-11-25T04:05:08;10.07;;;1.70;;
4885;SDS011;2457;51.788;6.136;2022-11-25T04:07:35;8.63;;;2.47;;
4885;SDS011;2457;51.788;6.136;2022-11-25T04:10:02;12.03;;;2.07;;
4885;SDS011;2457;51.788;6.136;2022-11-25T04:12:29;12.10;;;2.50;;
4885;SDS011;2457;51.788;6.136;2022-11-25T04:15:13;8.07;;;1.93;;
4885;SDS011;2457;51.788;6.136;2022-11-25T04:17:40;11.47;;;2.73;;
4885;SDS011;2457;51.788;6.136;2022-11-25T04:20:08;14.47;;;2.70;;
4885;SDS011;2457;51.788;6.136;2022-11-25T04:22:36;7.33;;;2.70;;
4885;SDS011;2457;51.788;6.136;2022-11-25T04:25:03;9.90;;;2.70;;
4885;SDS011;2457;51.788;6.136;2022-11-25T04:27:30;9.50;;;2.20;;
4885;SDS011;2457;51.788;6.136;2022-11-25T04:29:58;12.10;;;2.27;;
4885;SDS011;2457;51.788;6.136;2022-11-25T04:32:25;11.83;;;2.87;;
4885;SDS011;2457;51.788;6.136;2022-11-25T04:34:52;7.10;;;2.10;;
4885;SDS011;2457;51.788;6.136;2022-11-25T04:37:20;8.20;;;2.07;;
4885;SDS011;2457;51.788;6.136;2022-11-25T04:39:47;10.77;;;3.20;;
4885;SDS011;2457;51.788;6.136;2022-11-25T04:42:14;10.73;;;2.13;;
4885;SDS011;2457;51.788;6.136;2022-11-25T04:44:57;7.30;;;2.20;;
4885;SDS011;2457;51.788;6.136;2022-11-25T04:47:25;12.40;;;2.77;;
4885;SDS011;2457;51.788;6.136;2022-11-25T04:49:52;6.77;;;2.33;;
4885;SDS011;2457;51.788;6.136;2022-11-25T04:52:19;8.07;;;2.60;;
4885;SDS011;2457;51.788;6.136;2022-11-25T04:54:47;11.20;;;2.50;;
4885;SDS011;2457;51.788;6.136;2022-11-25T04:57:14;9.80;;;2.50;;
4885;SDS011;2457;51.788;6.136;2022-11-25T04:59:42;15.57;;;3.13;;
4885;SDS011;2457;51.788;6.136;2022-11-25T05:02:13;8.37;;;2.63;;
4885;SDS011;2457;51.788;6.136;2022-11-25T05:04:41;7.73;;;2.20;;
4885;SDS011;2457;51.788;6.136;2022-11-25T05:07:09;10.93;;;2.30;;
4885;SDS011;2457;51.788;6.136;2022-11-25T05:09:36;8.83;;;2.50;;
4885;SDS011;2457;51.788;6.136;2022-11-25T05:12:04;7.30;;;1.80;;
4885;SDS011;2457;51.788;6.136;2022-11-25T05:14:32;6.67;;;2.40;;
4885;SDS011;2457;51.788;6.136;2022-11-25T05:17:03;6.13;;;1.80;;
4885;SDS011;2457;51.788;6.136;2022-11-25T05:19:31;5.80;;;1.80;;
4885;SDS011;2457;51.788;6.136;2022-11-25T05:22:00;8.23;;;2.43;;
4885;SDS011;2457;51.788;6.136;2022-11-25T05:24:28;6.37;;;1.57;;
4885;SDS011;2457;51.788;6.136;2022-11-25T05:26:55;8.10;;;2.17;;
4885;SDS011;2457;51.788;6.136;2022-11-25T05:29:22;8.67;;;2.20;;
4885;SDS011;2457;51.788;6.136;2022-11-25T05:31:49;8.10;;;2.13;;
4885;SDS011;2457;51.788;6.136;2022-11-25T05:34:17;7.63;;;2.10;;
4885;SDS011;2457;51.788;6.136;2022-11-25T05:36:44;7.37;;;1.70;;
4885;SDS011;2457;51.788;6.136;2022-11-25T05:39:11;8.03;;;2.00;;
4885;SDS011;2457;51.788;6.136;2022-11-25T05:41:38;8.33;;;2.50;;
4885;SDS011;2457;51.788;6.136;2022-11-25T05:44:06;7.37;;;2.17;;
4885;SDS011;2457;51.788;6.136;2022-11-25T05:46:33;6.60;;;2.00;;
4885;SDS011;2457;51.788;6.136;2022-11-25T05:49:01;5.50;;;1.67;;
4885;SDS011;2457;51.788;6.136;2022-11-25T05:51:28;7.03;;;2.10;;
4885;SDS011;2457;51.788;6.136;2022-11-25T05:53:56;10.03;;;2.37;;
4885;SDS011;2457;51.788;6.136;2022-11-25T05:56:23;4.60;;;1.40;;
4885;SDS011;2457;51.788;6.136;2022-11-25T05:58:50;5.73;;;1.60;;
4885;SDS011;2457;51.788;6.136;2022-11-25T06:01:20;5.67;;;1.97;;
4885;SDS011;2457;51.788;6.136;2022-11-25T06:03:48;12.57;;;1.97;;
4885;SDS011;2457;51.788;6.136;2022-11-25T06:06:15;7.77;;;1.67;;
4885;SDS011;2457;51.788;6.136;2022-11-25T06:08:43;5.70;;;2.13;;
4885;SDS011;2457;51.788;6.136;2022-11-25T06:11:11;5.87;;;1.23;;
4885;SDS011;2457;51.788;6.136;2022-11-25T06:13:39;6.07;;;1.80;;
4885;SDS011;2457;51.788;6.136;2022-11-25T06:16:08;5.43;;;1.57;;
4885;SDS011;2457;51.788;6.136;2022-11-25T06:18:36;8.40;;;1.67;;
4885;SDS011;2457;51.788;6.136;2022-11-25T06:21:03;6.10;;;1.70;;
4885;SDS011;2457;51.788;6.136;2022-11-25T06:23:31;5.90;;;1.80;;
4885;SDS011;2457;51.788;6.136;2022-11-25T06:26:11;6.93;;;1.57;;
4885;SDS011;2457;51.788;6.136;2022-11-25T06:28:33;4.67;;;1.57;;
4885;SDS011;2457;51.788;6.136;2022-11-25T06:31:04;5.27;;;1.63;;
4885;SDS011;2457;51.788;6.136;2022-11-25T06:33:32;6.50;;;2.17;;
4885;SDS011;2457;51.788;6.136;2022-11-25T06:36:01;8.30;;;1.97;;
4885;SDS011;2457;51.788;6.136;2022-11-25T06:38:29;6.80;;;1.77;;
4885;SDS011;2457;51.788;6.136;2022-11-25T06:41:00;5.67;;;1.73;;
4885;SDS011;2457;51.788;6.136;2022-11-25T06:43:28;6.20;;;1.70;;
4885;SDS011;2457;51.788;6.136;2022-11-25T06:46:00;7.90;;;1.70;;
4885;SDS011;2457;51.788;6.136;2022-11-25T06:48:24;4.73;;;1.67;;
4885;SDS011;2457;51.788;6.136;2022-11-25T06:50:54;4.40;;;1.23;;
4885;SDS011;2457;51.788;6.136;2022-11-25T06:53:23;5.10;;;1.30;;
4885;SDS011;2457;51.788;6.136;2022-11-25T06:56:00;4.33;;;1.33;;
4885;SDS011;2457;51.788;6.136;2022-11-25T06:58:19;4.17;;;1.50;;
4885;SDS011;2457;51.788;6.136;2022-11-25T07:00:46;3.97;;;1.43;;
4885;SDS011;2457;51.788;6.136;2022-11-25T07:03:13;9.73;;;1.80;;
4885;SDS011;2457;51.788;6.136;2022-11-25T07:05:40;3.83;;;1.37;;
4885;SDS011;2457;51.788;6.136;2022-11-25T07:08:08;4.20;;;1.33;;
4885;SDS011;2457;51.788;6.136;2022-11-25T07:10:35;10.73;;;1.97;;
4885;SDS011;2457;51.788;6.136;2022-11-25T07:13:02;6.40;;;1.40;;
4885;SDS011;2457;51.788;6.136;2022-11-25T07:15:29;3.47;;;1.10;;
4885;SDS011;2457;51.788;6.136;2022-11-25T07:17:57;5.20;;;1.77;;
4885;SDS011;2457;51.788;6.136;2022-11-25T07:20:24;5.37;;;1.20;;
4885;SDS011;2457;51.788;6.136;2022-11-25T07:22:53;10.43;;;2.10;;
4885;SDS011;2457;51.788;6.136;2022-11-25T07:25:20;6.37;;;1.90;;
4885;SDS011;2457;51.788;6.136;2022-11-25T07:27:47;5.80;;;1.77;;
4885;SDS011;2457;51.788;6.136;2022-11-25T07:30:15;6.70;;;2.13;;
4885;SDS011;2457;51.788;6.136;2022-11-25T07:32:42;7.77;;;2.30;;
4885;SDS011;2457;51.788;6.136;2022-11-25T07:35:10;5.27;;;1.60;;
4885;SDS011;2457;51.788;6.136;2022-11-25T07:37:37;6.73;;;2.00;;
4885;SDS011;2457;51.788;6.136;2022-11-25T07:40:04;7.67;;;2.00;;
4885;SDS011;2457;51.788;6.136;2022-11-25T07:42:32;6.30;;;1.90;;
4885;SDS011;2457;51.788;6.136;2022-11-25T07:44:59;4.60;;;1.70;;
4885;SDS011;2457;51.788;6.136;2022-11-25T07:47:26;5.40;;;1.70;;
4885;SDS011;2457;51.788;6.136;2022-11-25T07:49:54;7.33;;;1.30;;
4885;SDS011;2457;51.788;6.136;2022-11-25T07:52:21;6.30;;;1.50;;
4885;SDS011;2457;51.788;6.136;2022-11-25T07:54:49;9.40;;;3.47;;
4885;SDS011;2457;51.788;6.136;2022-11-25T07:57:16;9.67;;;1.90;;
4885;SDS011;2457;51.788;6.136;2022-11-25T07:59:43;6.20;;;1.77;;
4885;SDS011;2457;51.788;6.136;2022-11-25T08:02:10;10.07;;;1.63;;
4885;SDS011;2457;51.788;6.136;2022-11-25T08:04:38;7.07;;;1.73;;
4885;SDS011;2457;51.788;6.136;2022-11-25T08:07:05;7.40;;;1.97;;
4885;SDS011;2457;51.788;6.136;2022-11-25T08:09:32;5.00;;;1.43;;
4885;SDS011;2457;51.788;6.136;2022-11-25T08:11:59;11.07;;;1.50;;
4885;SDS011;2457;51.788;6.136;2022-11-25T08:14:27;5.93;;;1.67;;
4885;SDS011;2457;51.788;6.136;2022-11-25T08:16:54;6.10;;;1.60;;
4885;SDS011;2457;51.788;6.136;2022-11-25T08:19:21;7.03;;;1.77;;
4885;SDS011;2457;51.788;6.136;2022-11-25T08:21:49;6.23;;;1.83;;
4885;SDS011;2457;51.788;6.136;2022-11-25T08:24:20;5.07;;;1.93;;
4885;SDS011;2457;51.788;6.136;2022-11-25T08:26:45;8.50;;;1.97;;
4885;SDS011;2457;51.788;6.136;2022-11-25T08:29:13;9.67;;;2.10;;
4885;SDS011;2457;51.788;6.136;2022-11-25T08:31:41;7.93;;;1.30;;
4885;SDS011;2457;51.788;6.136;2022-11-25T08:34:09;5.60;;;2.00;;
4885;SDS011;2457;51.788;6.136;2022-11-25T08:36:37;6.43;;;2.00;;
4885;SDS011;2457;51.788;6.136;2022-11-25T08:39:06;5.90;;;1.80;;
4885;SDS011;2457;51.788;6.136;2022-11-25T08:41:35;5.30;;;1.50;;
4885;SDS011;2457;51.788;6.136;2022-11-25T08:44:03;5.13;;;1.50;;
4885;SDS011;2457;51.788;6.136;2022-11-25T08:46:31;7.77;;;1.50;;
4885;SDS011;2457;51.788;6.136;2022-11-25T08:48:59;7.27;;;2.00;;
4885;SDS011;2457;51.788;6.136;2022-11-25T08:51:27;6.40;;;1.70;;
4885;SDS011;2457;51.788;6.136;2022-11-25T08:53:55;7.90;;;2.10;;
4885;SDS011;2457;51.788;6.136;2022-11-25T08:56:23;4.63;;;1.60;;
4885;SDS011;2457;51.788;6.136;2022-11-25T08:58:50;4.77;;;1.87;;
4885;SDS011;2457;51.788;6.136;2022-11-25T09:01:18;7.77;;;1.93;;
4885;SDS011;2457;51.788;6.136;2022-11-25T09:03:47;6.10;;;1.83;;
4885;SDS011;2457;51.788;6.136;2022-11-25T09:06:14;6.10;;;1.80;;
4885;SDS011;2457;51.788;6.136;2022-11-25T09:08:42;5.13;;;1.80;;
4885;SDS011;2457;51.788;6.136;2022-11-25T09:11:10;10.77;;;1.93;;
4885;SDS011;2457;51.788;6.136;2022-11-25T09:13:37;10.20;;;1.53;;
4885;SDS011;2457;51.788;6.136;2022-11-25T09:16:05;5.20;;;1.80;;
4885;SDS011;2457;51.788;6.136;2022-11-25T09:18:34;5.10;;;1.80;;
4885;SDS011;2457;51.788;6.136;2022-11-25T09:21:08;5.00;;;1.63;;
4885;SDS011;2457;51.788;6.136;2022-11-25T09:23:36;6.07;;;1.93;;
4885;SDS011;2457;51.788;6.136;2022-11-25T09:26:04;5.33;;;1.93;;
4885;SDS011;2457;51.788;6.136;2022-11-25T09:28:32;5.93;;;1.57;;
4885;SDS011;2457;51.788;6.136;2022-11-25T09:31:09;3.53;;;1.33;;
4885;SDS011;2457;51.788;6.136;2022-11-25T09:33:28;7.90;;;1.70;;
4885;SDS011;2457;51.788;6.136;2022-11-25T09:35:58;8.80;;;1.90;;
4885;SDS011;2457;51.788;6.136;2022-11-25T09:38:24;4.37;;;1.50;;
4885;SDS011;2457;51.788;6.136;2022-11-25T09:41:15;7.63;;;2.03;;
4885;SDS011;2457;51.788;6.136;2022-11-25T09:46:40;7.03;;;1.73;;
4885;SDS011;2457;51.788;6.136;2022-11-25T09:54:31;7.80;;;2.33;;
4885;SDS011;2457;51.788;6.136;2022-11-25T09:57:49;8.40;;;2.10;;
4885;SDS011;2457;51.788;6.136;2022-11-25T10:01:59;7.73;;;2.23;;
4885;SDS011;2457;51.788;6.136;2022-11-25T10:04:39;10.27;;;2.30;;
4885;SDS011;2457;51.788;6.136;2022-11-25T10:07:03;12.57;;;2.23;;
4885;SDS011;2457;51.788;6.136;2022-11-25T10:09:31;6.73;;;2.07;;
4885;SDS011;2457;51.788;6.136;2022-11-25T10:12:04;5.93;;;2.07;;
4885;SDS011;2457;51.788;6.136;2022-11-25T10:14:38;5.30;;;1.93;;
4885;SDS011;2457;51.788;6.136;2022-11-25T10:22:13;7.17;;;2.10;;
4885;SDS011;2457;51.788;6.136;2022-11-25T10:24:38;5.47;;;2.00;;
4885;SDS011;2457;51.788;6.136;2022-11-25T10:27:05;7.07;;;2.00;;
4885;SDS011;2457;51.788;6.136;2022-11-25T10:29:33;6.37;;;1.80;;
4885;SDS011;2457;51.788;6.136;2022-11-25T10:32:22;8.30;;;1.70;;
4885;SDS011;2457;51.788;6.136;2022-11-25T10:34:43;6.27;;;2.10;;
4885;SDS011;2457;51.788;6.136;2022-11-25T10:37:10;11.37;;;2.40;;
4885;SDS011;2457;51.788;6.136;2022-11-25T10:39:35;9.97;;;2.10;;
4885;SDS011;2457;51.788;6.136;2022-11-25T10:44:36;8.43;;;2.30;;
4885;SDS011;2457;51.788;6.136;2022-11-25T10:52:15;7.13;;;1.67;;
4885;SDS011;2457;51.788;6.136;2022-11-25T10:54:39;7.33;;;1.80;;
4885;SDS011;2457;51.788;6.136;2022-11-25T10:57:20;6.43;;;2.00;;
4885;SDS011;2457;51.788;6.136;2022-11-25T10:59:53;9.43;;;2.20;;
4885;SDS011;2457;51.788;6.136;2022-11-25T11:02:17;8.90;;;2.37;;
4885;SDS011;2457;51.788;6.136;2022-11-25T11:07:29;7.43;;;2.40;;
4885;SDS011;2457;51.788;6.136;2022-11-25T11:12:58;10.90;;;2.13;;
4885;SDS011;2457;51.788;6.136;2022-11-25T11:17:55;7.23;;;2.03;;
4885;SDS011;2457;51.788;6.136;2022-11-25T11:20:26;8.47;;;2.17;;
4885;SDS011;2457;51.788;6.136;2022-11-25T11:22:59;6.43;;;2.10;;
4885;SDS011;2457;51.788;6.136;2022-11-25T11:25:26;4.77;;;1.77;;
4885;SDS011;2457;51.788;6.136;2022-11-25T11:27:54;6.40;;;1.80;;
4885;SDS011;2457;51.788;6.136;2022-11-25T11:30:22;4.50;;;1.90;;
4885;SDS011;2457;51.788;6.136;2022-11-25T11:32:54;6.47;;;2.13;;
4885;SDS011;2457;51.788;6.136;2022-11-25T11:37:51;5.67;;;2.17;;
4885;SDS011;2457;51.788;6.136;2022-11-25T11:40:38;5.83;;;1.83;;
4885;SDS011;2457;51.788;6.136;2022-11-25T11:45:44;4.77;;;1.70;;
4885;SDS011;2457;51.788;6.136;2022-11-25T11:49:14;8.37;;;2.57;;
4885;SDS011;2457;51.788;6.136;2022-11-25T11:50:51;7.77;;;1.80;;
4885;SDS011;2457;51.788;6.136;2022-11-25T11:53:29;6.57;;;1.90;;
4885;SDS011;2457;51.788;6.136;2022-11-25T11:58:21;7.20;;;2.57;;
4885;SDS011;2457;51.788;6.136;2022-11-25T12:00:55;6.87;;;2.27;;
4885;SDS011;2457;51.788;6.136;2022-11-25T12:03:20;5.07;;;2.13;;
4885;SDS011;2457;51.788;6.136;2022-11-25T12:05:48;9.03;;;2.00;;
4885;SDS011;2457;51.788;6.136;2022-11-25T12:09:03;10.33;;;2.87;;
4885;SDS011;2457;51.788;6.136;2022-11-25T12:10:52;9.23;;;2.20;;
4885;SDS011;2457;51.788;6.136;2022-11-25T12:15:49;9.43;;;2.43;;
4885;SDS011;2457;51.788;6.136;2022-11-25T12:20:48;7.37;;;2.50;;
4885;SDS011;2457;51.788;6.136;2022-11-25T12:25:45;8.57;;;1.90;;
4885;SDS011;2457;51.788;6.136;2022-11-25T12:28:28;5.40;;;2.20;;
4885;SDS011;2457;51.788;6.136;2022-11-25T12:31:00;9.73;;;1.83;;
4885;SDS011;2457;51.788;6.136;2022-11-25T12:33:27;9.40;;;2.27;;
4885;SDS011;2457;51.788;6.136;2022-11-25T12:36:05;8.87;;;2.00;;
4885;SDS011;2457;51.788;6.136;2022-11-25T12:38:36;7.60;;;2.00;;
4885;SDS011;2457;51.788;6.136;2022-11-25T12:41:15;6.30;;;1.90;;
4885;SDS011;2457;51.788;6.136;2022-11-25T12:43:55;8.97;;;1.97;;
4885;SDS011;2457;51.788;6.136;2022-11-25T12:48:56;10.27;;;2.17;;
4885;SDS011;2457;51.788;6.136;2022-11-25T12:59:50;8.37;;;2.40;;
4885;SDS011;2457;51.788;6.136;2022-11-25T13:02:22;6.33;;;1.90;;
4885;SDS011;2457;51.788;6.136;2022-11-25T13:10:22;8.20;;;1.90;;
4885;SDS011;2457;51.788;6.136;2022-11-25T13:12:52;8.40;;;2.47;;
4885;SDS011;2457;51.788;6.136;2022-11-25T13:15:30;8.87;;;2.67;;
4885;SDS011;2457;51.788;6.136;2022-11-25T13:17:58;9.97;;;2.40;;
4885;SDS011;2457;51.788;6.136;2022-11-25T13:25:39;9.47;;;1.70;;
4885;SDS011;2457;51.788;6.136;2022-11-25T13:30:52;6.97;;;1.90;;
4885;SDS011;2457;51.788;6.136;2022-11-25T13:35:55;12.97;;;2.67;;
4885;SDS011;2457;51.788;6.136;2022-11-25T13:40:58;9.30;;;2.07;;
4885;SDS011;2457;51.788;6.136;2022-11-25T13:43:25;8.53;;;2.47;;
4885;SDS011;2457;51.788;6.136;2022-11-25T13:45:53;8.87;;;2.40;;
4885;SDS011;2457;51.788;6.136;2022-11-25T13:48:27;7.73;;;2.10;;
4885;SDS011;2457;51.788;6.136;2022-11-25T13:50:50;9.80;;;2.50;;
4885;SDS011;2457;51.788;6.136;2022-11-25T13:53:22;10.53;;;2.00;;
4885;SDS011;2457;51.788;6.136;2022-11-25T13:55:50;6.53;;;1.70;;
4885;SDS011;2457;51.788;6.136;2022-11-25T13:58:21;11.87;;;1.93;;
4885;SDS011;2457;51.788;6.136;2022-11-25T14:05:49;11.27;;;2.27;;
4885;SDS011;2457;51.788;6.136;2022-11-25T14:08:36;7.17;;;2.00;;
4885;SDS011;2457;51.788;6.136;2022-11-25T14:11:12;8.53;;;2.00;;
4885;SDS011;2457;51.788;6.136;2022-11-25T14:24:15;5.50;;;1.87;;
4885;SDS011;2457;51.788;6.136;2022-11-25T14:26:40;8.67;;;2.10;;
4885;SDS011;2457;51.788;6.136;2022-11-25T14:29:14;8.70;;;2.53;;
4885;SDS011;2457;51.788;6.136;2022-11-25T14:31:43;10.30;;;2.13;;
4885;SDS011;2457;51.788;6.136;2022-11-25T14:34:14;11.83;;;2.50;;
4885;SDS011;2457;51.788;6.136;2022-11-25T14:36:52;9.37;;;1.80;;
4885;SDS011;2457;51.788;6.136;2022-11-25T14:42:13;6.73;;;2.07;;
4885;SDS011;2457;51.788;6.136;2022-11-25T14:44:21;10.60;;;2.00;;
4885;SDS011;2457;51.788;6.136;2022-11-25T14:46:55;10.30;;;2.40;;
4885;SDS011;2457;51.788;6.136;2022-11-25T14:49:23;18.77;;;2.73;;
4885;SDS011;2457;51.788;6.136;2022-11-25T14:51:51;12.93;;;2.40;;
4885;SDS011;2457;51.788;6.136;2022-11-25T14:54:19;8.23;;;2.20;;
4885;SDS011;2457;51.788;6.136;2022-11-25T14:56:47;7.00;;;1.90;;
4885;SDS011;2457;51.788;6.136;2022-11-25T14:59:14;12.27;;;3.00;;
4885;SDS011;2457;51.788;6.136;2022-11-25T15:02:00;7.13;;;1.90;;
4885;SDS011;2457;51.788;6.136;2022-11-25T15:06:46;10.17;;;2.00;;
4885;SDS011;2457;51.788;6.136;2022-11-25T15:09:57;5.60;;;1.80;;
4885;SDS011;2457;51.788;6.136;2022-11-25T15:11:39;7.13;;;2.30;;
4885;SDS011;2457;51.788;6.136;2022-11-25T15:14:10;13.90;;;2.37;;
4885;SDS011;2457;51.788;6.136;2022-11-25T15:16:39;9.43;;;2.40;;
4885;SDS011;2457;51.788;6.136;2022-11-25T15:19:18;8.67;;;2.30;;
4885;SDS011;2457;51.788;6.136;2022-11-25T15:21:45;13.10;;;2.70;;
4885;SDS011;2457;51.788;6.136;2022-11-25T15:24:28;4.33;;;1.60;;
4885;SDS011;2457;51.788;6.136;2022-11-25T15:26:56;12.30;;;2.40;;
4885;SDS011;2457;51.788;6.136;2022-11-25T15:29:24;10.93;;;2.30;;
4885;SDS011;2457;51.788;6.136;2022-11-25T15:31:52;14.47;;;2.97;;
4885;SDS011;2457;51.788;6.136;2022-11-25T15:34:20;11.87;;;3.27;;
4885;SDS011;2457;51.788;6.136;2022-11-25T15:36:49;10.70;;;2.70;;
4885;SDS011;2457;51.788;6.136;2022-11-25T15:42:34;9.83;;;2.27;;
4885;SDS011;2457;51.788;6.136;2022-11-25T15:46:56;6.07;;;2.27;;
4885;SDS011;2457;51.788;6.136;2022-11-25T15:49:23;10.97;;;3.13;;
4885;SDS011;2457;51.788;6.136;2022-11-25T15:51:56;11.73;;;2.93;;
4885;SDS011;2457;51.788;6.136;2022-11-25T15:54:28;11.43;;;2.23;;
4885;SDS011;2457;51.788;6.136;2022-11-25T15:56:52;14.80;;;3.03;;
4885;SDS011;2457;51.788;6.136;2022-11-25T16:04:51;13.70;;;4.03;;
4885;SDS011;2457;51.788;6.136;2022-11-25T16:07:21;10.80;;;3.10;;
4885;SDS011;2457;51.788;6.136;2022-11-25T16:09:49;13.23;;;3.93;;
4885;SDS011;2457;51.788;6.136;2022-11-25T16:12:17;19.53;;;3.40;;
4885;SDS011;2457;51.788;6.136;2022-11-25T16:14:44;14.60;;;3.80;;
4885;SDS011;2457;51.788;6.136;2022-11-25T16:17:11;14.33;;;2.90;;
4885;SDS011;2457;51.788;6.136;2022-11-25T16:19:40;11.90;;;3.70;;
4885;SDS011;2457;51.788;6.136;2022-11-25T16:22:11;13.53;;;3.07;;
4885;SDS011;2457;51.788;6.136;2022-11-25T16:24:38;17.60;;;3.90;;
4885;SDS011;2457;51.788;6.136;2022-11-25T16:27:12;11.30;;;2.93;;
4885;SDS011;2457;51.788;6.136;2022-11-25T16:29:36;8.80;;;2.73;;
4885;SDS011;2457;51.788;6.136;2022-11-25T16:32:20;10.90;;;3.73;;
4885;SDS011;2457;51.788;6.136;2022-11-25T16:34:43;11.63;;;2.93;;
4885;SDS011;2457;51.788;6.136;2022-11-25T16:37:10;17.63;;;5.10;;
4885;SDS011;2457;51.788;6.136;2022-11-25T16:39:38;10.23;;;3.13;;
4885;SDS011;2457;51.788;6.136;2022-11-25T16:42:05;15.03;;;3.80;;
4885;SDS011;2457;51.788;6.136;2022-11-25T16:44:33;16.30;;;3.53;;
4885;SDS011;2457;51.788;6.136;2022-11-25T16:47:01;21.03;;;4.30;;
4885;SDS011;2457;51.788;6.136;2022-11-25T16:49:29;9.77;;;3.07;;
4885;SDS011;2457;51.788;6.136;2022-11-25T16:51:57;11.80;;;3.37;;
4885;SDS011;2457;51.788;6.136;2022-11-25T16:54:25;10.23;;;3.73;;
4885;SDS011;2457;51.788;6.136;2022-11-25T16:56:52;12.57;;;3.00;;
4885;SDS011;2457;51.788;6.136;2022-11-25T16:59:27;14.60;;;3.00;;
4885;SDS011;2457;51.788;6.136;2022-11-25T17:01:51;13.17;;;3.50;;
4885;SDS011;2457;51.788;6.136;2022-11-25T17:04:18;13.30;;;3.20;;
4885;SDS011;2457;51.788;6.136;2022-11-25T17:06:45;15.07;;;3.70;;
4885;SDS011;2457;51.788;6.136;2022-11-25T17:09:13;14.03;;;3.60;;
4885;SDS011;2457;51.788;6.136;2022-11-25T17:11:42;14.63;;;3.90;;
4885;SDS011;2457;51.788;6.136;2022-11-25T17:14:12;11.53;;;3.33;;
4885;SDS011;2457;51.788;6.136;2022-11-25T17:16:38;8.97;;;3.13;;